Terminal Aerodrome Forecast
Issued by NWS

Home | Current Version | Previous Version | Graphics & Text | Print | Product List | Glossary On
Versions: 1 2 3 4 5 6 7 8 9 10 11 12 13 14 15 16 17
142
FTUS43 KBIS 292004 AAA
TAFJMS
TAF AMD
KJMS 292004Z 2920/3018 15007KT P6SM VCTS SCT035 BKN050CB
      TEMPO 2920/2922 VRB15G25KT -TSRA SCT030 OVC045CB
     FM300300 15006KT P6SM SCT100=

USA.gov is the U.S. government's official web portal to all federal, state and local government web resources and services.